Time;durP1;ratioP1;P1;durP2;ratioP2;P2;SDS_P1;SDS_P2;PMS_P1;PMS_P2;Temp;Humidity;BMP_temperature;BMP_pressure;BME280_temperature;BME280_humidity;BME280_pressure;Samples;Min_cycle;Max_cycle;Signal;HPM_P1;HPM_P2
2022/08/20 00:00:36;;;;;;;4.13;3.83;;;;;;;23.86;51.53;101099.00;5073469;28;20044;-75
2022/08/20 00:03:04;;;;;;;4.25;3.85;;;;;;;23.86;51.44;101103.63;5073186;28;20039;-75
2022/08/20 00:05:35;;;;;;;3.90;3.60;;;;;;;23.86;51.73;101090.00;5073105;28;20112;-75
2022/08/20 00:08:02;;;;;;;4.13;3.83;;;;;;;23.86;51.71;101095.44;5073175;28;20027;-75
2022/08/20 00:10:28;;;;;;;4.10;3.70;;;;;;;23.84;51.68;101094.88;5055529;28;20038;-75
2022/08/20 00:12:54;;;;;;;4.00;3.70;;;;;;;23.85;51.80;101096.53;5055154;28;20441;-75
2022/08/20 00:15:21;;;;;;;4.18;3.80;;;;;;;23.84;51.60;101089.44;5073280;28;20025;-75
2022/08/20 00:17:49;;;;;;;4.03;3.72;;;;;;;23.85;51.70;101093.78;5073028;28;20058;-75
2022/08/20 00:20:15;;;;;;;3.80;3.50;;;;;;;23.83;51.98;101088.59;5073452;28;20381;-75
2022/08/20 00:22:40;;;;;;;4.10;3.70;;;;;;;23.85;51.82;101091.88;5055217;28;20021;-75
2022/08/20 00:25:07;;;;;;;4.10;3.80;;;;;;;23.84;51.72;101095.72;5072960;28;20031;-75
2022/08/20 00:27:32;;;;;;;4.00;3.70;;;;;;;23.83;51.84;101088.59;5073962;28;20082;-75
2022/08/20 00:29:58;;;;;;;4.20;3.90;;;;;;;23.85;51.70;101085.59;5073373;28;20024;-75
2022/08/20 00:32:23;;;;;;;3.78;3.47;;;;;;;23.81;52.00;101083.38;5073695;28;20082;-74
2022/08/20 00:34:49;;;;;;;4.22;3.70;;;;;;;23.81;51.92;101086.13;5072584;28;20446;-74
2022/08/20 00:37:14;;;;;;;4.07;3.70;;;;;;;23.81;51.85;101088.03;5072962;28;20025;-74
2022/08/20 00:39:40;;;;;;;4.00;3.70;;;;;;;23.83;51.80;101085.03;5054971;28;20035;-74
2022/08/20 00:42:06;;;;;;;3.78;3.47;;;;;;;23.80;51.67;101089.91;5072753;28;20059;-74
2022/08/20 00:44:32;;;;;;;3.90;3.55;;;;;;;23.80;52.21;101089.06;5072851;28;20358;-74
2022/08/20 00:46:57;;;;;;;3.85;3.55;;;;;;;23.81;52.07;101090.75;5072724;28;20028;-75
2022/08/20 00:49:26;;;;;;;4.05;3.75;;;;;;;23.79;52.04;101088.25;5072960;28;20031;-74
2022/08/20 00:52:01;;;;;;;3.70;3.40;;;;;;;23.80;52.26;101089.91;5073107;28;20094;-74
2022/08/20 00:54:54;;;;;;;3.65;3.35;;;;;;;23.84;52.64;101089.44;5073097;28;20040;-74
2022/08/20 00:57:29;;;;;;;4.30;4.00;;;;;;;23.81;52.03;101083.38;5073201;28;20039;-74
2022/08/20 00:59:56;;;;;;;4.03;3.72;;;;;;;23.79;52.00;101088.25;5076917;28;20099;-74
2022/08/20 01:02:22;;;;;;;4.30;3.90;;;;;;;23.78;52.06;101086.63;5059228;28;20115;-75
2022/08/20 01:04:56;;;;;;;4.13;3.78;;;;;;;23.77;52.15;101079.50;5042574;28;20025;-75
2022/08/20 01:07:31;;;;;;;3.55;3.28;;;;;;;23.78;52.20;101091.25;5077270;28;20052;-75
2022/08/20 01:09:56;;;;;;;3.60;3.30;;;;;;;23.78;51.99;101089.34;5077276;28;20173;-75
2022/08/20 01:12:22;;;;;;;4.28;3.97;;;;;;;23.77;52.36;101087.69;5077103;28;20420;-75
2022/08/20 01:14:48;;;;;;;4.25;3.85;;;;;;;23.76;52.13;101082.50;5077037;28;20020;-75
2022/08/20 01:17:20;;;;;;;4.13;3.80;;;;;;;23.75;52.07;101092.59;5078838;28;20359;-75
2022/08/20 01:19:51;;;;;;;3.88;3.58;;;;;;;23.77;51.99;101095.06;5059970;28;20040;-74
2022/08/20 01:25:15;;;;;;;3.90;3.60;;;;;;;23.77;52.15;101097.78;5047665;28;20086;-74
2022/08/20 01:27:40;;;;;;;4.78;4.28;;;;;;;23.74;52.51;101093.66;5041999;28;20027;-75
2022/08/20 01:30:06;;;;;;;3.92;3.63;;;;;;;23.76;52.38;101094.22;5058515;28;20025;-74
2022/08/20 01:32:32;;;;;;;4.65;4.25;;;;;;;23.76;52.25;101101.59;5076594;28;20073;-75
2022/08/20 01:34:57;;;;;;;4.07;3.70;;;;;;;23.76;52.60;101099.69;5078152;28;20036;-75
2022/08/20 01:37:23;;;;;;;3.85;3.55;;;;;;;23.75;52.43;101098.06;5087634;28;20025;-75
2022/08/20 01:39:48;;;;;;;4.18;3.88;;;;;;;23.76;52.32;101098.88;5094500;28;20033;-76
2022/08/20 01:42:18;;;;;;;4.10;3.80;;;;;;;23.75;52.22;101097.22;5094007;28;20077;-75
2022/08/20 01:44:43;;;;;;;3.80;3.50;;;;;;;23.76;52.52;101099.69;5077905;28;20040;-75
2022/08/20 01:47:19;;;;;;;4.03;3.72;;;;;;;23.76;52.71;101093.41;5093884;28;20020;-75
2022/08/20 01:49:48;;;;;;;4.15;3.83;;;;;;;23.73;52.50;101091.19;5085865;28;20036;-75
2022/08/20 01:52:34;;;;;;;3.92;3.63;;;;;;;23.74;52.64;101099.13;5077760;28;20028;-75
2022/08/20 01:55:00;;;;;;;4.13;3.83;;;;;;;23.74;52.62;101090.13;5067474;28;20032;-75
2022/08/20 01:57:26;;;;;;;3.85;3.55;;;;;;;23.73;52.55;101089.31;5074185;28;20020;-75
2022/08/20 01:59:51;;;;;;;4.32;3.92;;;;;;;23.72;52.39;101095.84;5067887;28;20036;-75
2022/08/20 02:02:17;;;;;;;4.07;3.78;;;;;;;23.72;52.52;101097.75;5065835;28;20522;-75
2022/08/20 02:04:43;;;;;;;4.00;3.70;;;;;;;23.73;52.68;101094.75;5083088;28;20413;-76
2022/08/20 02:07:17;;;;;;;4.05;3.70;;;;;;;23.72;52.56;101093.09;5086067;28;20025;-75
2022/08/20 02:09:42;;;;;;;;;;;;;;;23.90;52.58;101099.28;5080113;28;20104;-74
2022/08/20 02:12:08;;;;;;;3.85;3.55;;;;;;;23.78;52.14;101094.81;5075831;28;20011;-75
2022/08/20 02:14:33;;;;;;;3.70;3.35;;;;;;;23.76;52.38;101098.88;5075687;28;20378;-75
2022/08/20 02:16:59;;;;;;;3.92;3.63;;;;;;;23.72;52.68;101092.28;5075201;28;20106;-75
2022/08/20 02:19:34;;;;;;;3.90;3.60;;;;;;;23.72;52.77;101086.84;5075011;28;20025;-75
2022/08/20 02:22:02;;;;;;;3.92;3.63;;;;;;;23.69;52.63;101082.69;5075202;28;20024;-74
2022/08/20 02:24:28;;;;;;;3.75;3.45;;;;;;;23.71;52.96;101091.44;5075306;28;20071;-74
2022/08/20 02:26:54;;;;;;;3.67;3.38;;;;;;;23.69;52.85;101096.34;5075216;28;20028;-74
2022/08/20 02:29:19;;;;;;;3.80;3.50;;;;;;;23.70;52.75;101092.53;5075025;28;20025;-75
2022/08/20 02:31:45;;;;;;;3.83;3.53;;;;;;;23.70;52.99;101088.97;5075186;28;20035;-75
2022/08/20 02:34:11;;;;;;;3.88;3.58;;;;;;;23.71;52.76;101096.09;5074811;28;20048;-75
2022/08/20 02:36:37;;;;;;;3.88;3.55;;;;;;;23.70;52.61;101098.00;5075013;28;20029;-75
2022/08/20 02:39:07;;;;;;;4.03;3.72;;;;;;;23.68;52.83;101086.53;5075002;28;20025;-75
2022/08/20 02:41:34;;;;;;;3.55;3.25;;;;;;;23.69;52.93;101098.25;5074822;28;20025;-75
2022/08/20 02:43:59;;;;;;;3.92;3.53;;;;;;;23.69;52.60;101093.63;5074541;28;20024;-75
2022/08/20 02:46:27;;;;;;;4.18;3.78;;;;;;;23.68;52.77;101086.53;5074520;28;20040;-75
2022/08/20 02:48:53;;;;;;;3.80;3.50;;;;;;;23.67;52.73;101090.31;5074724;28;20111;-75
2022/08/20 02:51:18;;;;;;;3.75;3.40;;;;;;;23.67;53.01;101095.78;5074334;28;20439;-76
2022/08/20 02:53:44;;;;;;;3.67;3.38;;;;;;;23.68;52.87;101097.44;5074483;28;20032;-74
2022/08/20 02:56:09;;;;;;;3.95;3.60;;;;;;;23.66;52.69;101091.41;5074325;28;20024;-74
2022/08/20 02:58:35;;;;;;;3.75;3.45;;;;;;;23.68;52.84;101096.59;5074239;28;20028;-75
2022/08/20 03:01:02;;;;;;;3.65;3.35;;;;;;;23.65;52.84;101106.13;5074440;28;20029;-74
2022/08/20 03:03:28;;;;;;;3.75;3.45;;;;;;;23.66;53.07;101102.31;5056419;28;20017;-75
2022/08/20 03:05:55;;;;;;;3.88;3.58;;;;;;;23.66;52.79;101110.50;5074150;28;20078;-75
2022/08/20 03:08:20;;;;;;;4.00;3.70;;;;;;;23.67;52.87;101111.34;5074353;28;20039;-75
2022/08/20 03:10:46;;;;;;;3.70;3.40;;;;;;;23.66;52.68;101109.69;5074320;28;20025;-75
2022/08/20 03:13:12;;;;;;;3.60;3.30;;;;;;;23.66;53.02;101110.50;5074134;28;20028;-75
2022/08/20 03:15:39;;;;;;;3.75;3.45;;;;;;;23.64;52.64;101112.66;5074222;28;20032;-74
2022/08/20 03:18:05;;;;;;;3.90;3.53;;;;;;;23.65;53.09;101118.97;5073352;28;20021;-75
2022/08/20 03:20:30;;;;;;;3.83;3.53;;;;;;;23.65;52.88;101111.59;5074128;28;20036;-75
2022/08/20 03:22:56;;;;;;;3.65;3.35;;;;;;;23.65;53.23;101125.25;5073790;28;20549;-75
2022/08/20 03:25:21;;;;;;;3.63;3.33;;;;;;;23.63;53.03;101117.31;5073826;28;20090;-75
2022/08/20 03:27:48;;;;;;;3.58;3.28;;;;;;;23.63;53.24;101117.31;5073656;28;20021;-75
2022/08/20 03:30:14;;;;;;;3.80;3.50;;;;;;;23.64;53.02;101118.13;5073628;28;20039;-75
2022/08/20 03:32:39;;;;;;;3.88;3.58;;;;;;;23.65;53.30;101119.78;5074007;28;20541;-75
2022/08/20 03:35:07;;;;;;;3.47;3.20;;;;;;;23.62;53.37;101114.84;5073704;28;20016;-75
2022/08/20 03:37:33;;;;;;;3.03;2.78;;;;;;;23.64;53.37;101118.13;5073890;28;20108;-75
2022/08/20 03:39:59;;;;;;;3.53;3.22;;;;;;;23.64;53.21;101118.13;5073456;28;20055;-75
2022/08/20 03:42:24;;;;;;;3.70;3.40;;;;;;;23.60;53.56;101111.53;5073412;28;20025;-75
2022/08/20 03:44:50;;;;;;;3.30;3.00;;;;;;;23.64;53.30;101118.13;5073513;28;20056;-75
2022/08/20 03:47:16;;;;;;;3.10;2.90;;;;;;;23.63;53.33;101109.13;5073424;28;20028;-75
2022/08/20 03:49:41;;;;;;;3.58;3.28;;;;;;;23.63;53.25;101113.75;5073682;28;20028;-75
2022/08/20 03:52:06;;;;;;;3.55;3.25;;;;;;;23.62;53.58;101120.28;5073755;28;20130;-75
2022/08/20 03:54:32;;;;;;;3.40;3.10;;;;;;;23.61;53.68;101119.47;5073603;28;20458;-76
2022/08/20 03:56:58;;;;;;;3.65;3.35;;;;;;;23.62;53.51;101117.56;5073578;28;20443;-76
2022/08/20 03:59:24;;;;;;;3.58;3.28;;;;;;;23.62;53.66;101125.75;5073575;28;20036;-76
2022/08/20 04:01:49;;;;;;;3.58;3.28;;;;;;;23.62;53.75;101131.19;5073289;28;20524;-76
2022/08/20 04:04:15;;;;;;;3.55;3.25;;;;;;;23.62;53.46;101126.56;5073554;28;20040;-76
2022/08/20 04:06:41;;;;;;;3.30;3.05;;;;;;;23.61;53.44;101126.81;5073531;28;20455;-76
2022/08/20 04:09:06;;;;;;;3.60;3.30;;;;;;;23.61;53.71;101130.38;5072981;28;20024;-76
2022/08/20 04:11:32;;;;;;;3.42;3.13;;;;;;;23.61;53.76;101129.53;5073105;28;20030;-76
2022/08/20 04:13:57;;;;;;;3.40;3.10;;;;;;;23.61;53.58;101124.94;5073406;28;20017;-75
2022/08/20 04:16:23;;;;;;;3.55;3.25;;;;;;;23.62;53.60;101128.47;5072971;28;20099;-76
2022/08/20 04:18:48;;;;;;;3.10;2.90;;;;;;;23.62;53.74;101133.94;5072976;28;20036;-76
2022/08/20 04:21:14;;;;;;;3.78;3.42;;;;;;;23.61;53.53;101130.38;5073394;28;20032;-76
2022/08/20 04:23:39;;;;;;;3.40;3.10;;;;;;;23.61;53.68;101135.00;5055278;28;20032;-76
2022/08/20 04:26:05;;;;;;;3.15;2.95;;;;;;;23.62;53.54;101136.66;5055343;28;20431;-76
2022/08/20 04:28:32;;;;;;;3.47;3.17;;;;;;;23.60;53.66;101133.38;5073011;28;20043;-76
2022/08/20 04:30:58;;;;;;;3.78;3.42;;;;;;;23.60;53.50;101136.09;5075003;28;20390;-76
2022/08/20 04:33:25;;;;;;;3.28;2.97;;;;;;;23.61;53.56;101137.72;5077075;28;20055;-76
2022/08/20 04:35:51;;;;;;;3.75;3.28;;;;;;;23.60;53.54;101133.38;5077052;28;20017;-76
2022/08/20 04:38:17;;;;;;;3.50;3.20;;;;;;;23.61;53.75;101140.47;5077147;28;20027;-76
2022/08/20 04:40:59;;;;;;;3.90;3.10;;;;;;;23.60;53.58;101138.81;5077352;28;20051;-76
2022/08/20 04:43:30;;;;;;;3.20;2.90;;;;;;;23.61;53.47;101129.53;5077386;28;20039;-75
2022/08/20 04:45:57;;;;;;;3.50;3.20;;;;;;;23.61;53.63;101135.00;5077046;28;20028;-75
2022/08/20 04:48:22;;;;;;;3.20;2.95;;;;;;;23.60;53.66;101127.91;5059255;28;20033;-76
2022/08/20 04:50:48;;;;;;;3.35;3.05;;;;;;;23.59;53.70;101120.78;5076802;28;20028;-76
2022/08/20 04:53:18;;;;;;;3.25;2.88;;;;;;;23.60;53.68;101133.38;5076950;28;20028;-76
2022/08/20 04:55:44;;;;;;;3.88;3.47;;;;;;;23.61;53.72;101135.00;5076969;28;20532;-76
2022/08/20 04:58:22;;;;;;;3.10;2.90;;;;;;;23.61;53.88;101135.84;5077392;28;20095;-76
2022/08/20 05:00:48;;;;;;;3.35;3.05;;;;;;;23.60;53.73;101131.47;5076701;28;20467;-76
2022/08/20 05:03:15;;;;;;;2.88;2.67;;;;;;;23.60;53.81;101133.38;5076849;28;20475;-76
2022/08/20 05:05:40;;;;;;;3.30;3.08;;;;;;;23.60;53.90;101128.72;5076699;28;20020;-76
2022/08/20 05:08:06;;;;;;;2.92;2.72;;;;;;;23.60;53.45;101128.72;5076779;28;20364;-74
2022/08/20 05:10:31;;;;;;;3.25;2.95;;;;;;;23.59;53.79;101123.53;5076364;28;20028;-75
2022/08/20 05:12:57;;;;;;;3.50;3.20;;;;;;;23.59;54.07;101126.25;5077331;28;20028;-75
2022/08/20 05:15:25;;;;;;;3.10;2.80;;;;;;;23.59;54.00;101131.72;5076614;28;20370;-75
2022/08/20 05:17:55;;;;;;;3.13;2.92;;;;;;;23.57;53.67;101133.88;5059591;28;20348;-76
2022/08/20 05:20:21;;;;;;;3.10;2.80;;;;;;;23.60;53.85;101134.19;5076576;28;20024;-75
2022/08/20 05:22:46;;;;;;;3.13;2.83;;;;;;;23.60;53.92;101125.19;5076451;28;20352;-75
2022/08/20 05:25:12;;;;;;;3.60;3.13;;;;;;;23.60;53.67;101128.72;5076599;28;20458;-76
2022/08/20 05:27:38;;;;;;;3.45;2.90;;;;;;;23.60;53.71;101133.38;5076235;28;20375;-76
2022/08/20 05:30:06;;;;;;;3.08;2.88;;;;;;;23.58;53.85;101136.34;5076646;28;20413;-76
2022/08/20 05:32:32;;;;;;;3.30;3.00;;;;;;;23.59;53.84;101126.25;5077227;28;20185;-76
2022/08/20 05:35:02;;;;;;;3.25;2.95;;;;;;;23.60;53.68;101136.09;5075277;28;20055;-76
2022/08/20 05:37:28;;;;;;;3.10;2.90;;;;;;;23.60;54.04;101134.19;5076846;28;20025;-76
2022/08/20 05:39:54;;;;;;;3.08;2.80;;;;;;;23.61;54.05;101137.72;5078000;28;20495;-76
2022/08/20 05:42:19;;;;;;;3.22;2.92;;;;;;;23.58;53.91;101128.16;5077726;28;20028;-76
2022/08/20 05:44:45;;;;;;;3.13;2.85;;;;;;;23.61;53.96;101130.38;5080319;28;20383;-76
2022/08/20 05:47:11;;;;;;;2.97;2.78;;;;;;;23.61;53.84;101129.53;5085506;28;20024;-74
2022/08/20 05:49:37;;;;;;;3.10;2.90;;;;;;;23.58;54.24;101130.09;5092378;28;20099;-75
2022/08/20 05:52:04;;;;;;;2.95;2.70;;;;;;;23.60;53.80;101133.38;5094187;28;20000;-75
2022/08/20 05:54:29;;;;;;;3.33;3.03;;;;;;;23.60;54.09;101133.38;5094572;28;20028;-75
2022/08/20 05:56:55;;;;;;;2.92;2.72;;;;;;;23.59;53.97;101132.56;5094842;28;20121;-75
2022/08/20 05:59:21;;;;;;;2.80;2.60;;;;;;;23.60;54.05;101130.66;5094312;28;20463;-76
2022/08/20 06:01:47;;;;;;;3.40;2.88;;;;;;;23.60;54.21;101136.09;5093916;28;20499;-76
2022/08/20 06:04:26;;;;;;;3.00;2.80;;;;;;;23.60;54.54;101136.09;5092352;28;20020;-76
2022/08/20 06:06:54;;;;;;;3.30;2.78;;;;;;;23.59;54.40;101143.47;5078513;28;20382;-76
2022/08/20 06:09:20;;;;;;;3.10;2.88;;;;;;;23.60;54.47;101144.28;5075763;28;20055;-76
2022/08/20 06:11:46;;;;;;;3.00;2.80;;;;;;;23.58;54.24;101139.09;5075313;28;20025;-76
2022/08/20 06:14:11;;;;;;;2.50;2.30;;;;;;;23.60;54.33;101130.66;5075719;28;20047;-76
2022/08/20 06:16:37;;;;;;;3.10;2.80;;;;;;;23.59;54.35;101134.44;5075193;28;20421;-76
2022/08/20 06:19:03;;;;;;;2.80;2.60;;;;;;;23.60;54.15;101130.66;5075224;28;20032;-76
2022/08/20 06:21:28;;;;;;;2.88;2.67;;;;;;;23.60;54.40;101123.28;5075440;28;20028;-74
2022/08/20 06:23:54;;;;;;;2.83;2.60;;;;;;;23.60;54.27;101122.47;5040508;28;20032;-76
2022/08/20 06:26:19;;;;;;;3.00;2.70;;;;;;;23.59;54.40;101126.25;5075285;28;20032;-76
2022/08/20 06:28:45;;;;;;;3.00;2.70;;;;;;;23.59;54.51;101127.09;5074933;28;20063;-74
2022/08/20 06:31:10;;;;;;;2.80;2.60;;;;;;;23.55;54.53;101115.03;5075153;28;20040;-74
2022/08/20 06:33:36;;;;;;;2.78;2.58;;;;;;;23.57;54.33;101109.31;5074795;28;20441;-75
2022/08/20 06:36:02;;;;;;;2.97;2.78;;;;;;;23.55;54.33;101115.03;5057335;28;20098;-75
2022/08/20 06:38:27;;;;;;;3.10;2.80;;;;;;;23.59;54.28;101120.78;5075246;28;20036;-75
2022/08/20 06:40:53;;;;;;;3.40;2.80;;;;;;;23.60;54.12;101122.47;5075035;28;20034;-76
2022/08/20 06:43:18;;;;;;;2.50;2.30;;;;;;;23.59;54.31;101115.34;5074963;28;20044;-75
2022/08/20 06:45:44;;;;;;;2.83;2.60;;;;;;;23.60;54.44;101112.34;5074580;28;20024;-75
2022/08/20 06:48:11;;;;;;;2.83;2.58;;;;;;;23.60;54.39;101106.09;5074836;28;20028;-75
2022/08/20 06:50:40;;;;;;;3.05;2.47;;;;;;;23.60;54.41;101100.63;5074468;28;20028;-75
2022/08/20 06:53:06;;;;;;;3.13;2.83;;;;;;;23.61;54.13;101105.00;5073887;28;20092;-75
2022/08/20 06:55:32;;;;;;;2.17;2.05;;;;;;;23.61;54.22;101099.53;5074685;28;20103;-75
2022/08/20 06:57:58;;;;;;;3.17;2.88;;;;;;;23.60;54.15;101101.44;5074671;28;20021;-75
2022/08/20 07:00:24;;;;;;;2.83;2.63;;;;;;;23.60;54.33;101103.34;5074666;28;20044;-74
2022/08/20 07:02:49;;;;;;;3.35;3.05;;;;;;;23.61;54.20;101094.06;5074617;28;20411;-75
2022/08/20 07:05:15;;;;;;;2.78;2.58;;;;;;;23.62;54.35;101098.47;5056538;28;20529;-74
2022/08/20 07:07:44;;;;;;;2.63;2.42;;;;;;;23.60;53.92;101096.00;5074407;28;20028;-75
2022/08/20 07:10:10;;;;;;;2.60;2.40;;;;;;;23.60;54.20;101084.25;5074087;28;20419;-74
2022/08/20 07:12:36;;;;;;;2.85;2.63;;;;;;;23.60;54.32;101089.72;5074351;28;20021;-74
2022/08/20 07:15:09;;;;;;;2.90;2.70;;;;;;;23.61;54.13;101096.81;5074311;28;20032;-74
2022/08/20 07:17:34;;;;;;;3.05;2.75;;;;;;;23.63;54.17;101094.66;5073837;28;20377;-75
2022/08/20 07:20:26;;;;;;;3.13;2.83;;;;;;;23.65;54.30;101092.50;5073976;28;20028;-74
2022/08/20 07:22:52;;;;;;;2.42;2.22;;;;;;;23.63;54.23;101089.22;5068894;28;20127;-74
2022/08/20 07:25:18;;;;;;;3.10;2.80;;;;;;;23.64;54.29;101088.09;5056071;28;20028;-74
2022/08/20 07:27:44;;;;;;;2.60;2.40;;;;;;;23.59;54.19;101085.31;5073727;28;20028;-76
2022/08/20 07:33:04;;;;;;;2.80;2.60;;;;;;;23.62;53.87;101073.91;5011999;28;20094;-75
2022/08/20 07:35:30;;;;;;;2.88;2.67;;;;;;;23.66;54.02;101083.22;5012070;28;20042;-75
2022/08/20 07:37:55;;;;;;;2.75;2.55;;;;;;;23.62;53.79;101082.09;5029088;28;20034;-75
2022/08/20 07:40:26;;;;;;;2.50;2.30;;;;;;;23.63;53.83;101081.84;5031636;28;20033;-76
2022/08/20 07:42:52;;;;;;;2.83;2.63;;;;;;;23.63;53.63;101081.84;5031812;28;20498;-76
2022/08/20 07:45:19;;;;;;;2.65;2.45;;;;;;;23.64;53.88;101082.66;5031572;28;20048;-74
2022/08/20 07:47:45;;;;;;;2.70;2.50;;;;;;;23.64;53.66;101085.38;5031496;28;20029;-76
2022/08/20 07:50:11;;;;;;;3.65;2.67;;;;;;;23.64;53.82;101079.91;5031486;28;20487;-76
2022/08/20 07:52:37;;;;;;;2.95;2.60;;;;;;;23.63;53.47;101081.03;5031447;28;20036;-75
2022/08/20 07:55:03;;;;;;;2.85;2.65;;;;;;;23.61;53.53;101075.81;5031380;28;20025;-75
2022/08/20 07:57:29;;;;;;;2.78;2.50;;;;;;;23.63;53.57;101073.66;5031621;28;20045;-75
2022/08/20 07:59:57;;;;;;;2.72;2.53;;;;;;;23.61;53.63;101069.53;5031266;28;20504;-75
2022/08/20 08:02:23;;;;;;;2.78;2.58;;;;;;;23.62;53.48;101071.19;5031208;28;20122;-75
2022/08/20 08:04:48;;;;;;;2.60;2.38;;;;;;;23.61;53.26;101067.63;5031163;28;20029;-76
2022/08/20 08:07:15;;;;;;;2.80;2.60;;;;;;;23.64;53.36;101069.00;5031252;28;20030;-76
2022/08/20 08:09:40;;;;;;;2.97;2.47;;;;;;;23.62;53.40;101072.00;5038879;28;20040;-76
2022/08/20 08:12:06;;;;;;;3.42;3.08;;;;;;;23.62;53.07;101069.25;5054461;28;20025;-76
2022/08/20 08:14:32;;;;;;;2.55;2.35;;;;;;;23.63;53.01;101070.94;5073066;28;20039;-76
2022/08/20 08:17:00;;;;;;;2.25;2.05;;;;;;;23.61;53.05;101073.09;5055515;28;20074;-76
2022/08/20 08:19:26;;;;;;;2.60;2.25;;;;;;;23.62;52.91;101063.00;5073095;28;20467;-76
2022/08/20 08:21:51;;;;;;;3.00;2.33;;;;;;;23.61;52.49;101072.25;5055530;28;20070;-76
2022/08/20 08:24:17;;;;;;;2.40;2.20;;;;;;;23.62;52.28;101068.44;5073696;28;20478;-75
2022/08/20 08:26:43;;;;;;;2.63;2.42;;;;;;;23.62;52.42;101076.63;5073466;28;20028;-75
2022/08/20 08:29:08;;;;;;;3.25;2.55;;;;;;;23.60;52.34;101076.06;5072849;28;20111;-75
2022/08/20 08:31:34;;;;;;;2.78;2.50;;;;;;;23.61;52.07;101064.91;5073205;28;20048;-75
2022/08/20 08:33:59;;;;;;;2.42;2.17;;;;;;;23.62;52.26;101071.19;5072736;28;20483;-74
2022/08/20 08:36:25;;;;;;;2.70;2.50;;;;;;;23.61;52.11;101064.06;5073150;28;20016;-75
2022/08/20 08:38:51;;;;;;;2.42;2.22;;;;;;;23.60;52.29;101067.91;5055145;28;20025;-76
2022/08/20 08:41:20;;;;;;;2.53;2.33;;;;;;;23.61;51.67;101069.53;5073370;28;20074;-74
2022/08/20 08:43:46;;;;;;;2.40;2.20;;;;;;;23.64;52.11;101074.47;5073034;28;20039;-75
2022/08/20 08:46:12;;;;;;;2.50;2.30;;;;;;;23.64;51.76;101069.00;5072821;28;20382;-75
2022/08/20 08:48:44;;;;;;;2.88;2.55;;;;;;;23.66;51.86;101068.75;5054888;28;20027;-75
2022/08/20 08:51:13;;;;;;;2.65;2.40;;;;;;;23.66;51.66;101077.75;5072900;28;20032;-75
2022/08/20 08:53:43;;;;;;;3.00;2.70;;;;;;;23.66;51.77;101080.47;5072655;28;20052;-76
2022/08/20 08:56:09;;;;;;;2.53;2.33;;;;;;;23.67;51.67;101073.13;5038807;28;20112;-75
2022/08/20 08:58:35;;;;;;;2.85;2.65;;;;;;;23.68;51.70;101081.06;5072741;28;20112;-75
2022/08/20 09:01:03;;;;;;;2.33;2.13;;;;;;;23.69;51.62;101070.97;5073037;28;20032;-74
2022/08/20 09:03:30;;;;;;;2.80;2.60;;;;;;;23.68;51.41;101072.88;5072908;28;20021;-74
2022/08/20 09:05:58;;;;;;;2.83;2.63;;;;;;;23.69;51.05;101071.78;5072580;28;20497;-74
2022/08/20 09:08:26;;;;;;;2.85;2.65;;;;;;;23.69;50.89;101065.50;5072893;28;20478;-75
2022/08/20 09:10:52;;;;;;;2.75;2.55;;;;;;;23.70;51.02;101080.78;5054863;28;20055;-75
2022/08/20 09:13:18;;;;;;;2.55;2.35;;;;;;;23.70;51.11;101068.00;5072850;28;20455;-75
2022/08/20 09:15:43;;;;;;;2.47;2.28;;;;;;;23.69;50.91;101073.69;5072896;28;20045;-75
2022/08/20 09:18:08;;;;;;;2.45;2.25;;;;;;;23.70;50.49;101073.44;5076277;28;20025;-75
2022/08/20 09:20:34;;;;;;;2.50;2.30;;;;;;;23.71;50.79;101077.81;5076326;28;20033;-75
2022/08/20 09:22:59;;;;;;;2.30;2.10;;;;;;;23.69;50.22;101076.44;5076421;28;20036;-75
2022/08/20 09:25:25;;;;;;;2.40;2.20;;;;;;;23.71;50.57;101075.06;5076373;28;20489;-75
2022/08/20 09:27:53;;;;;;;2.72;2.53;;;;;;;23.71;50.55;101079.72;5076348;28;20462;-75
2022/08/20 09:30:19;;;;;;;2.28;2.08;;;;;;;23.71;50.06;101069.63;5076038;28;20025;-75
2022/08/20 09:32:44;;;;;;;2.45;2.25;;;;;;;23.66;50.12;101064.13;5075620;28;20111;-75
2022/08/20 09:35:10;;;;;;;2.65;2.30;;;;;;;23.71;49.61;101068.81;5056275;28;20025;-75
2022/08/20 09:37:35;;;;;;;2.63;2.42;;;;;;;23.70;49.15;101067.16;5056022;28;20043;-75
2022/08/20 09:40:01;;;;;;;2.50;2.30;;;;;;;23.72;48.81;101067.72;5056219;28;20051;-75
2022/08/20 09:42:31;;;;;;;2.38;2.17;;;;;;;23.70;49.56;101068.00;5055817;28;20024;-75
2022/08/20 09:44:57;;;;;;;2.67;2.47;;;;;;;23.70;48.72;101057.06;5056154;28;20033;-75
2022/08/20 09:47:22;;;;;;;2.55;2.35;;;;;;;23.69;48.39;101060.88;5038249;28;20533;-75
2022/08/20 09:49:48;;;;;;;3.08;2.65;;;;;;;23.68;49.12;101056.50;5055999;28;20037;-75
2022/08/20 09:52:22;;;;;;;2.72;2.53;;;;;;;23.72;49.18;101051.34;5055961;28;20025;-74
2022/08/20 09:54:47;;;;;;;3.78;2.50;;;;;;;23.70;48.19;101059.81;5038023;28;20075;-75
2022/08/20 09:57:13;;;;;;;2.60;2.40;;;;;;;23.68;48.13;101045.59;5055702;28;20108;-74
2022/08/20 09:59:38;;;;;;;2.70;2.50;;;;;;;23.70;48.83;101037.97;5038210;28;20037;-74
2022/08/20 10:02:04;;;;;;;2.80;2.60;;;;;;;23.66;47.91;101045.00;5056336;28;20028;-75
2022/08/20 10:04:29;;;;;;;2.47;2.20;;;;;;;23.70;47.83;101037.97;5056467;28;20040;-74
2022/08/20 10:06:55;;;;;;;2.15;2.00;;;;;;;23.71;48.24;101030.59;5060406;28;20040;-76
2022/08/20 10:09:20;;;;;;;4.07;2.40;;;;;;;23.73;48.80;101031.16;5049956;28;20040;-76
2022/08/20 10:11:46;;;;;;;2.40;2.20;;;;;;;23.72;47.82;101030.34;5068284;28;20058;-76
2022/08/20 10:14:11;;;;;;;3.08;2.70;;;;;;;23.73;48.05;101032.00;5069095;28;20044;-76
2022/08/20 10:16:37;;;;;;;3.05;2.75;;;;;;;23.71;48.16;101030.59;5069086;28;20029;-75
2022/08/20 10:19:03;;;;;;;2.70;2.50;;;;;;;23.73;48.46;101028.44;5070256;28;20382;-75
2022/08/20 10:21:29;;;;;;;2.80;2.50;;;;;;;23.74;48.40;101032.81;5068668;28;20475;-75
2022/08/20 10:23:54;;;;;;;2.75;2.55;;;;;;;23.69;48.31;101028.13;5061421;28;20395;-74
2022/08/20 10:26:20;;;;;;;3.50;3.20;;;;;;;23.73;48.23;101022.97;5055577;28;20021;-75
2022/08/20 10:28:45;;;;;;;2.78;2.58;;;;;;;23.72;47.99;101021.34;5055339;28;20418;-75
2022/08/20 10:31:11;;;;;;;3.47;2.78;;;;;;;23.73;48.14;101028.44;5055262;28;20026;-75
2022/08/20 10:33:37;;;;;;;4.28;3.10;;;;;;;23.67;48.75;101024.84;5045679;28;20101;-75
2022/08/20 10:36:20;;;;;;;3.35;2.97;;;;;;;23.71;48.34;101028.69;5057725;28;20075;-75
2022/08/20 10:38:47;;;;;;;3.33;3.03;;;;;;;23.71;48.52;101023.22;5075365;28;20025;-75
2022/08/20 10:41:13;;;;;;;3.15;2.85;;;;;;;23.66;48.57;101022.38;5075044;28;20739;-75
2022/08/20 10:43:38;;;;;;;3.20;2.90;;;;;;;23.66;48.50;101023.19;5075449;28;20033;-75
2022/08/20 10:46:04;;;;;;;4.22;3.10;;;;;;;23.66;48.06;101031.38;5075440;28;20363;-75
2022/08/20 10:48:30;;;;;;;3.35;3.05;;;;;;;23.65;48.13;101016.09;5075483;28;20020;-76
2022/08/20 10:50:55;;;;;;;3.08;2.88;;;;;;;23.64;47.93;101011.72;5074902;28;20028;-75
2022/08/20 10:53:23;;;;;;;3.50;3.10;;;;;;;23.70;48.00;101018.03;5074574;28;20032;-75
2022/08/20 10:55:49;;;;;;;3.75;3.35;;;;;;;23.62;48.12;101016.63;5074647;28;20039;-75
2022/08/20 10:58:14;;;;;;;3.72;3.10;;;;;;;23.62;48.40;101016.63;5074478;28;20374;-75
2022/08/20 11:00:40;;;;;;;4.07;3.08;;;;;;;23.61;48.31;101006.75;5074642;28;20402;-75
2022/08/20 11:03:05;;;;;;;3.50;3.20;;;;;;;23.59;47.91;101007.06;5074606;28;20351;-75
2022/08/20 11:05:30;;;;;;;4.45;3.30;;;;;;;23.56;48.26;101004.00;5074577;28;20378;-75
2022/08/20 11:07:56;;;;;;;4.00;3.33;;;;;;;23.54;48.39;101003.44;5074092;28;20031;-75
2022/08/20 11:10:23;;;;;;;3.40;3.10;;;;;;;23.56;48.42;101004.84;5074109;28;20090;-74
2022/08/20 11:12:49;;;;;;;3.78;3.40;;;;;;;23.52;48.30;101000.97;5074490;28;20024;-75
2022/08/20 11:15:14;;;;;;;4.10;2.90;;;;;;;23.51;48.20;101003.94;5074735;28;20020;-75
2022/08/20 11:17:41;;;;;;;3.58;3.28;;;;;;;23.54;48.17;100995.25;5074476;28;20025;-74
2022/08/20 11:20:07;;;;;;;3.45;3.13;;;;;;;23.51;48.32;100999.34;5074365;28;20031;-75
2022/08/20 11:22:33;;;;;;;3.40;3.10;;;;;;;23.50;48.30;100999.59;5073921;28;20025;-74
2022/08/20 11:24:59;;;;;;;3.03;2.72;;;;;;;23.50;48.31;100997.69;5074246;28;20103;-75
2022/08/20 11:27:30;;;;;;;3.50;3.10;;;;;;;23.49;48.13;100989.75;5056090;28;20096;-75